createdAt,value
2022-11-09T00:05:05.588Z,100782.16
2022-11-09T00:10:12.337Z,100784.78
2022-11-09T00:15:18.765Z,100779.59
2022-11-09T00:20:26.503Z,100771.81
2022-11-09T00:25:33.027Z,100767.44
2022-11-09T00:30:39.206Z,100765.72
2022-11-09T00:35:46.800Z,100766.56
2022-11-09T00:40:53.065Z,100769.16
2022-11-09T00:45:59.805Z,100773.47
2022-11-09T00:51:08.409Z,100774.34
2022-11-09T00:56:15.087Z,100769.16
2022-11-09T01:01:21.538Z,100764.88
2022-11-09T01:06:29.470Z,100769.16
2022-11-09T01:11:36.590Z,100773.50
2022-11-09T01:16:42.935Z,100771.75
2022-11-09T01:21:51.122Z,100768.31
2022-11-09T01:26:57.511Z,100763.97
2022-11-09T01:32:05.168Z,100765.72
2022-11-09T01:37:12.885Z,100761.41
2022-11-09T01:42:26.150Z,100751.94
2022-11-09T01:47:32.640Z,100734.66
2022-11-09T01:52:44.104Z,100733.78
2022-11-09T01:57:59.586Z,100735.50
2022-11-09T02:03:11.372Z,100722.59
2022-11-09T02:08:25.827Z,100729.53
2022-11-09T02:13:33.822Z,100724.38
2022-11-09T02:18:53.805Z,100726.13
2022-11-09T02:24:04.543Z,100728.69
2022-11-09T02:29:18.295Z,100732.13
2022-11-09T02:34:26.196Z,100732.13
2022-11-09T02:39:34.492Z,100733.84
2022-11-09T02:44:45.529Z,100733.00
2022-11-09T02:49:52.345Z,100718.28
2022-11-09T02:55:01.113Z,100737.31
2022-11-09T03:00:10.845Z,100737.31
2022-11-09T03:05:18.142Z,100755.47
2022-11-09T03:10:26.286Z,100745.94
2022-11-09T03:15:32.538Z,100757.16
2022-11-09T03:20:39.286Z,100752.84
2022-11-09T03:25:48.197Z,100759.81
2022-11-09T03:30:54.913Z,100751.13
2022-11-09T03:36:01.623Z,100747.69
2022-11-09T03:41:10.042Z,100732.16
2022-11-09T03:46:16.566Z,100737.41
2022-11-09T03:51:22.624Z,100720.13
2022-11-09T03:56:30.812Z,100731.38
2022-11-09T04:01:36.879Z,100721.88
2022-11-09T04:06:43.042Z,100721.88
2022-11-09T04:11:50.784Z,100717.56
2022-11-09T04:16:56.906Z,100727.06
2022-11-09T04:22:03.057Z,100709.78
2022-11-09T04:27:10.599Z,100710.69
2022-11-09T04:32:16.854Z,100706.41
2022-11-09T04:37:22.958Z,100703.78
2022-11-09T04:42:30.400Z,100719.31
2022-11-09T04:47:36.465Z,100722.81
2022-11-09T04:52:42.805Z,100728.88
2022-11-09T04:57:50.373Z,100725.41
2022-11-09T05:02:56.629Z,100724.56
2022-11-09T05:08:02.988Z,100712.50
2022-11-09T05:13:14.462Z,100720.25
2022-11-09T05:18:20.742Z,100718.59
2022-11-09T05:23:44.037Z,100720.31
2022-11-09T05:28:53.019Z,100718.59
2022-11-09T05:33:59.752Z,100705.69
2022-11-09T05:39:05.983Z,100711.69
2022-11-09T05:44:13.659Z,100716.91
2022-11-09T05:49:19.977Z,100720.38
2022-11-09T05:54:25.994Z,100715.16
2022-11-09T05:59:33.450Z,100730.69
2022-11-09T06:04:39.793Z,100738.47
2022-11-09T06:09:46.197Z,100728.13
2022-11-09T06:14:53.758Z,100722.97
2022-11-09T06:20:00.628Z,100730.72
2022-11-09T06:25:07.871Z,100731.56
2022-11-09T06:30:16.432Z,100733.28
2022-11-09T06:35:22.693Z,100724.63
2022-11-09T06:40:29.454Z,100727.22
2022-11-09T06:45:37.507Z,100723.72
2022-11-09T06:50:43.761Z,100723.66
2022-11-09T06:55:51.061Z,100727.97
2022-11-09T07:00:59.192Z,100729.63
2022-11-09T07:06:09.037Z,100730.47
2022-11-09T07:11:17.857Z,100719.19
2022-11-09T07:16:25.460Z,100718.25
2022-11-09T07:21:31.769Z,100722.50
2022-11-09T07:26:37.901Z,100728.53
2022-11-09T07:31:45.671Z,100721.50
2022-11-09T07:36:54.369Z,100726.63
2022-11-09T07:42:00.708Z,100725.72
2022-11-09T07:47:08.572Z,100716.94
2022-11-09T07:52:15.462Z,100723.75
2022-11-09T07:57:21.751Z,100708.03
2022-11-09T08:02:29.385Z,100717.53
2022-11-09T08:07:35.545Z,100716.53
2022-11-09T08:12:42.513Z,100705.22
2022-11-09T08:17:50.147Z,100697.22
2022-11-09T08:23:00.897Z,100685.03
2022-11-09T08:28:14.562Z,100687.56
2022-11-09T08:33:23.099Z,100688.41
2022-11-09T08:38:29.286Z,100697.75
2022-11-09T08:43:35.642Z,100695.91
2022-11-09T08:48:43.172Z,100695.81
2022-11-09T08:53:49.332Z,100703.56
2022-11-09T08:58:55.463Z,100703.41
2022-11-09T09:04:03.810Z,100702.38
2022-11-09T09:09:10.219Z,100711.81
2022-11-09T09:14:17.331Z,100706.53
2022-11-09T09:19:25.075Z,100700.28
2022-11-09T09:24:32.342Z,100706.25
2022-11-09T09:29:38.432Z,100711.38
2022-11-09T09:34:45.956Z,100706.97
2022-11-09T09:39:52.422Z,100703.22
2022-11-09T09:45:04.346Z,100712.69
2022-11-09T09:50:19.152Z,100711.69
2022-11-09T09:55:31.357Z,100711.31
2022-11-09T10:00:39.809Z,100705.03
2022-11-09T10:05:57.715Z,100706.69
2022-11-09T10:11:18.456Z,100693.63
2022-11-09T10:16:35.256Z,100685.75
2022-11-09T10:21:51.218Z,100692.66
2022-11-09T10:27:00.610Z,100679.50
2022-11-09T10:32:21.147Z,100681.91
2022-11-09T10:37:36.989Z,100687.13
2022-11-09T10:42:47.689Z,100679.28
2022-11-09T10:48:13.525Z,100680.78
2022-11-09T10:53:39.301Z,100673.63
2022-11-09T10:59:04.652Z,100679.59
2022-11-09T11:04:30.331Z,100676.81
2022-11-09T11:09:56.744Z,100675.78
2022-11-09T11:15:27.321Z,100665.28
2022-11-09T11:21:18.500Z,100676.47
2022-11-09T11:26:55.517Z,100690.28
2022-11-09T11:32:22.594Z,100687.00
2022-11-09T11:38:02.526Z,100682.31
2022-11-09T11:43:46.398Z,100677.63
2022-11-09T11:49:55.025Z,100678.28
2022-11-09T11:55:40.117Z,100679.06
2022-11-09T12:01:34.624Z,100670.91
2022-11-09T12:07:24.963Z,100668.16
2022-11-09T12:13:01.837Z,100666.41
2022-11-09T12:18:44.298Z,100673.38
2022-11-09T12:24:23.777Z,100669.84
2022-11-09T12:29:59.383Z,100673.97
2022-11-09T12:35:38.462Z,100666.78
2022-11-09T12:41:09.457Z,100676.28
2022-11-09T12:46:40.248Z,100676.16
2022-11-09T12:52:08.246Z,100683.13
2022-11-09T12:57:34.278Z,100684.78
2022-11-09T13:03:02.035Z,100675.22
2022-11-09T13:08:30.619Z,100670.13
2022-11-09T13:14:38.966Z,100675.31
2022-11-09T13:20:03.718Z,100674.50
2022-11-09T13:25:54.294Z,100671.03
2022-11-09T13:32:05.102Z,100679.84
2022-11-09T13:37:58.318Z,100679.06
2022-11-09T13:43:28.512Z,100679.16
2022-11-09T13:48:54.555Z,100676.56
2022-11-09T13:54:35.219Z,100679.19
2022-11-09T14:00:04.216Z,100684.44
2022-11-09T14:05:31.696Z,100694.13
2022-11-09T14:11:46.926Z,100694.22
2022-11-09T14:17:22.895Z,100691.78
2022-11-09T14:22:47.472Z,100702.31
2022-11-09T14:28:24.232Z,100701.56
2022-11-09T14:34:02.472Z,100696.44
2022-11-09T14:39:32.575Z,100689.69
2022-11-09T14:44:57.290Z,100687.28
2022-11-09T14:50:26.656Z,100681.31
2022-11-09T14:55:53.291Z,100681.44
2022-11-09T15:01:25.846Z,100679.00
2022-11-09T15:06:56.752Z,100686.19
2022-11-09T15:12:23.705Z,100676.78
2022-11-09T15:17:48.938Z,100684.75
2022-11-09T15:23:39.426Z,100685.72
2022-11-09T15:29:25.085Z,100685.09
2022-11-09T15:34:57.802Z,100693.88
2022-11-09T15:40:26.740Z,100689.69
2022-11-09T15:45:51.986Z,100695.00
2022-11-09T15:51:18.173Z,100695.22
2022-11-09T15:56:45.104Z,100695.31
2022-11-09T16:02:12.945Z,100694.50
2022-11-09T16:07:38.649Z,100696.28
2022-11-09T16:13:06.840Z,100692.22
2022-11-09T16:18:32.659Z,100700.03
2022-11-09T16:23:58.798Z,100700.88
2022-11-09T16:29:28.800Z,100703.69
2022-11-09T16:35:15.396Z,100704.63
2022-11-09T16:40:40.793Z,100696.19
2022-11-09T16:46:08.059Z,100700.59
2022-11-09T16:51:33.235Z,100691.19
2022-11-09T16:56:58.645Z,100684.53
2022-11-09T17:02:27.114Z,100691.41
2022-11-09T17:07:52.484Z,100690.63
2022-11-09T17:13:18.295Z,100696.75
2022-11-09T17:18:45.035Z,100689.78
2022-11-09T17:24:11.075Z,100687.13
2022-11-09T17:29:40.031Z,100701.88
2022-11-09T17:35:07.997Z,100702.69
2022-11-09T17:40:33.677Z,100698.41
2022-11-09T17:45:59.025Z,100694.19
2022-11-09T17:51:26.541Z,100696.75
2022-11-09T17:56:52.393Z,100689.78
2022-11-09T18:02:19.101Z,100695.00
2022-11-09T18:07:46.621Z,100695.84
2022-11-09T18:13:12.733Z,100698.53
2022-11-09T18:18:39.086Z,100690.72
2022-11-09T18:24:06.705Z,100704.63
2022-11-09T18:29:33.004Z,100705.66
2022-11-09T18:34:59.117Z,100698.72
2022-11-09T18:40:26.927Z,100704.78
2022-11-09T18:45:58.021Z,100716.03
2022-11-09T18:51:23.964Z,100726.44
2022-11-09T18:56:54.536Z,100723.03
2022-11-09T19:02:20.097Z,100723.91
2022-11-09T19:07:45.474Z,100731.72
2022-11-09T19:13:13.879Z,100728.31
2022-11-09T19:18:39.703Z,100732.56
2022-11-09T19:24:06.696Z,100722.28
2022-11-09T19:29:34.756Z,100725.72
2022-11-09T19:35:01.532Z,100724.00
2022-11-09T19:40:27.604Z,100721.41
2022-11-09T19:45:55.202Z,100726.63
2022-11-09T19:51:21.904Z,100714.53
2022-11-09T19:56:48.833Z,100727.53
2022-11-09T20:02:18.271Z,100718.88
2022-11-09T20:07:44.207Z,100730.16
2022-11-09T20:13:12.951Z,100732.00
2022-11-09T20:18:41.103Z,100732.06
2022-11-09T20:24:09.365Z,100726.03
2022-11-09T20:29:37.844Z,100725.22
2022-11-09T20:35:05.163Z,100730.44
2022-11-09T20:40:32.054Z,100732.22
2022-11-09T20:45:58.875Z,100725.38
2022-11-09T20:51:28.480Z,100721.91
2022-11-09T20:56:55.128Z,100725.47
2022-11-09T21:02:21.048Z,100729.81
2022-11-09T21:07:48.453Z,100731.59
2022-11-09T21:13:13.831Z,100716.09
2022-11-09T21:18:38.711Z,100725.63
2022-11-09T21:24:23.398Z,100726.50
2022-11-09T21:29:54.791Z,100729.16
2022-11-09T21:35:20.044Z,100729.16
2022-11-09T21:40:46.785Z,100727.38
2022-11-09T21:46:11.605Z,100738.63
2022-11-09T21:51:38.015Z,100735.31
2022-11-09T21:57:04.632Z,100738.91
2022-11-09T22:02:29.822Z,100736.34
2022-11-09T22:07:55.673Z,100738.94
2022-11-09T22:13:39.443Z,100740.75
2022-11-09T22:19:22.951Z,100741.63
2022-11-09T22:24:47.659Z,100731.25
2022-11-09T22:30:14.956Z,100737.38
2022-11-09T22:35:39.786Z,100739.94
2022-11-09T22:41:06.921Z,100732.16
2022-11-09T22:46:33.206Z,100726.97
2022-11-09T22:51:58.016Z,100733.91
2022-11-09T22:57:22.717Z,100733.97
2022-11-09T23:02:48.968Z,100733.97
2022-11-09T23:08:14.266Z,100734.84
2022-11-09T23:13:39.395Z,100738.31
2022-11-09T23:19:05.617Z,100748.75
2022-11-09T23:24:47.446Z,100760.84
2022-11-09T23:30:14.438Z,100747.97
2022-11-09T23:35:40.894Z,100750.63
2022-11-09T23:41:07.185Z,100762.69
2022-11-09T23:46:31.642Z,100760.13
2022-11-09T23:51:57.648Z,100754.94
2022-11-09T23:57:22.702Z,100751.50
